createdAt,value
2019-03-04T00:01:32.577Z,10.00
2019-03-04T00:04:00.987Z,10.10
2019-03-04T00:06:29.382Z,10.30
2019-03-04T00:08:57.805Z,10.40
2019-03-04T00:11:26.271Z,10.60
2019-03-04T00:13:54.682Z,10.70
2019-03-04T00:16:23.086Z,10.80
2019-03-04T00:18:51.514Z,10.90
2019-03-04T00:21:19.906Z,10.90
2019-03-04T00:23:48.326Z,10.80
2019-03-04T00:26:16.717Z,10.80
2019-03-04T00:28:45.110Z,10.70
2019-03-04T00:31:13.831Z,10.60
2019-03-04T00:33:42.221Z,10.50
2019-03-04T00:36:10.615Z,10.40
2019-03-04T00:38:39.031Z,10.40
2019-03-04T00:41:07.504Z,10.40
2019-03-04T00:43:35.891Z,10.40
2019-03-04T00:46:04.386Z,10.40
2019-03-04T00:48:32.783Z,10.40
2019-03-04T00:51:01.258Z,10.40
2019-03-04T00:53:29.667Z,10.30
2019-03-04T00:55:58.059Z,10.30
2019-03-04T00:58:26.462Z,10.20
2019-03-04T01:00:54.963Z,10.20
2019-03-04T01:03:23.354Z,10.10
2019-03-04T01:05:51.747Z,10.10
2019-03-04T01:08:20.226Z,10.10
2019-03-04T01:10:48.610Z,10.10
2019-03-04T01:13:17.017Z,10.10
2019-03-04T01:15:45.435Z,10.00
2019-03-04T01:18:13.827Z,9.90
2019-03-04T01:20:42.231Z,9.70
2019-03-04T01:23:10.623Z,9.60
2019-03-04T01:25:39.031Z,9.60
2019-03-04T01:28:07.436Z,9.50
2019-03-04T01:30:35.822Z,9.50
2019-03-04T01:33:04.303Z,9.50
2019-03-04T01:35:32.807Z,9.50
2019-03-04T01:38:01.191Z,9.50
2019-03-04T01:40:29.598Z,9.50
2019-03-04T01:42:58.006Z,9.50
2019-03-04T01:45:26.414Z,9.50
2019-03-04T01:47:54.812Z,9.50
2019-03-04T01:50:23.228Z,9.50
2019-03-04T01:52:51.620Z,9.40
2019-03-04T01:55:40.607Z,9.30
2019-03-04T01:58:09.039Z,9.30
2019-03-04T02:00:37.518Z,9.30
2019-03-04T02:03:05.947Z,9.30
2019-03-04T02:05:34.334Z,9.30
2019-03-04T02:08:02.752Z,9.40
2019-03-04T02:10:31.133Z,9.40
2019-03-04T02:12:59.550Z,9.50
2019-03-04T02:15:27.962Z,9.50
2019-03-04T02:17:56.370Z,9.40
2019-03-04T02:20:25.082Z,9.40
2019-03-04T02:22:53.486Z,9.30
2019-03-04T02:25:30.563Z,9.20
2019-03-04T02:27:58.990Z,9.10
2019-03-04T02:30:28.518Z,9.00
2019-03-04T02:32:56.910Z,8.90
2019-03-04T02:35:25.314Z,8.90
2019-03-04T02:37:53.709Z,8.90
2019-03-04T02:40:22.092Z,8.90
2019-03-04T02:42:50.499Z,8.90
2019-03-04T02:45:19.569Z,8.90
2019-03-04T02:47:48.311Z,8.80
2019-03-04T02:50:17.044Z,8.80
2019-03-04T02:52:45.784Z,8.80
2019-03-04T02:55:16.915Z,8.80
2019-03-04T02:57:45.394Z,8.80
2019-03-04T03:00:17.993Z,8.70
2019-03-04T03:02:46.380Z,8.70
2019-03-04T03:05:15.794Z,8.50
2019-03-04T03:07:44.191Z,8.40
2019-03-04T03:10:14.010Z,8.20
2019-03-04T03:12:42.490Z,8.10
2019-03-04T03:15:15.597Z,8.00
2019-03-04T03:17:43.993Z,7.90
2019-03-04T03:20:14.310Z,7.90
2019-03-04T03:22:42.974Z,7.90
2019-03-04T03:25:15.376Z,7.80
2019-03-04T03:27:43.754Z,7.70
2019-03-04T03:30:22.216Z,7.60
2019-03-04T03:32:50.681Z,7.50
2019-03-04T03:35:19.141Z,7.40
2019-03-04T03:37:47.516Z,7.30
2019-03-04T03:40:21.940Z,7.30
2019-03-04T03:42:50.441Z,7.20
2019-03-04T03:45:19.141Z,7.00
2019-03-04T03:47:47.534Z,6.90
2019-03-04T03:50:16.688Z,6.80
2019-03-04T03:52:45.896Z,6.80
2019-03-04T03:55:15.999Z,6.70
2019-03-04T03:57:44.446Z,6.70
2019-03-04T04:00:23.353Z,6.70
2019-03-04T04:02:51.812Z,6.70
2019-03-04T04:05:20.404Z,6.70
2019-03-04T04:08:01.531Z,6.70
2019-03-04T04:10:29.918Z,6.80
2019-03-04T04:12:58.771Z,6.80
2019-03-04T04:15:27.180Z,6.90
2019-03-04T04:17:55.583Z,6.90
2019-03-04T04:20:23.980Z,6.90
2019-03-04T04:22:52.379Z,6.90
2019-03-04T04:25:20.791Z,6.90
2019-03-04T04:27:49.178Z,6.90
2019-03-04T04:30:22.789Z,6.90
2019-03-04T04:32:51.237Z,6.90
2019-03-04T04:35:19.638Z,6.90
2019-03-04T04:37:48.041Z,6.90
2019-03-04T04:40:16.426Z,6.90
2019-03-04T04:42:44.815Z,7.00
2019-03-04T04:45:13.495Z,7.00
2019-03-04T04:47:43.124Z,7.00
2019-03-04T04:50:14.865Z,7.00
2019-03-04T04:52:43.254Z,7.00
2019-03-04T04:55:11.642Z,7.10
2019-03-04T04:57:40.050Z,7.10
2019-03-04T05:00:14.203Z,7.10
2019-03-04T05:02:42.687Z,7.20
2019-03-04T05:05:11.154Z,7.20
2019-03-04T05:07:39.929Z,7.20
2019-03-04T05:10:11.403Z,7.30
2019-03-04T05:12:39.799Z,7.30
2019-03-04T05:15:10.842Z,7.40
2019-03-04T05:17:39.941Z,7.40
2019-03-04T05:20:14.895Z,7.50
2019-03-04T05:22:43.360Z,7.50
2019-03-04T05:25:11.915Z,7.50
2019-03-04T05:27:40.403Z,7.60
2019-03-04T05:30:14.549Z,7.60
2019-03-04T05:32:43.028Z,7.80
2019-03-04T05:35:11.674Z,7.90
2019-03-04T05:37:40.253Z,7.90
2019-03-04T05:40:11.795Z,7.90
2019-03-04T05:42:40.455Z,7.90
2019-03-04T05:45:11.712Z,7.90
2019-03-04T05:47:40.098Z,7.80
2019-03-04T05:50:11.294Z,7.90
2019-03-04T05:52:39.784Z,8.00
2019-03-04T05:55:10.915Z,8.20
2019-03-04T05:57:39.614Z,8.30
2019-03-04T06:00:17.452Z,8.40
2019-03-04T06:02:46.049Z,8.40
2019-03-04T06:05:15.076Z,8.40
2019-03-04T06:07:45.111Z,8.40
2019-03-04T06:10:14.058Z,8.30
2019-03-04T06:12:42.518Z,8.30
2019-03-04T06:15:16.232Z,8.20
2019-03-04T06:17:44.908Z,8.30
2019-03-04T06:20:15.439Z,8.30
2019-03-04T06:22:43.835Z,8.40
2019-03-04T06:25:14.708Z,8.40
2019-03-04T06:27:43.150Z,8.40
2019-03-04T06:30:14.707Z,8.50
2019-03-04T06:32:43.124Z,8.60
2019-03-04T06:35:13.255Z,8.70
2019-03-04T06:37:41.662Z,8.80
2019-03-04T06:40:13.109Z,8.90
2019-03-04T06:42:41.527Z,9.00
2019-03-04T06:45:12.462Z,9.00
2019-03-04T06:47:40.939Z,9.10
2019-03-04T06:50:28.783Z,9.20
2019-03-04T06:52:59.531Z,9.30
2019-03-04T06:55:36.650Z,9.40
2019-03-04T06:58:05.042Z,9.50
2019-03-04T07:00:39.270Z,9.50
2019-03-04T07:03:07.758Z,9.70
2019-03-04T07:05:49.682Z,9.80
2019-03-04T07:08:39.022Z,9.80
2019-03-04T07:11:07.438Z,9.90
2019-03-04T07:13:35.867Z,9.90
2019-03-04T07:16:04.255Z,9.90
2019-03-04T07:18:32.967Z,10.00
2019-03-04T07:21:01.365Z,10.10
2019-03-04T07:23:29.764Z,10.30
2019-03-04T07:25:58.169Z,10.60
2019-03-04T07:28:26.634Z,10.80
2019-03-04T07:30:55.052Z,11.00
2019-03-04T07:33:23.451Z,11.30
2019-03-04T07:35:51.855Z,11.70
2019-03-04T07:38:23.332Z,12.10
2019-03-04T07:40:51.790Z,12.60
2019-03-04T07:43:20.182Z,12.90
2019-03-04T07:45:48.601Z,13.20
2019-03-04T07:48:17.031Z,13.30
2019-03-04T07:50:45.799Z,13.50
2019-03-04T07:53:14.215Z,13.60
2019-03-04T07:55:42.635Z,13.40
2019-03-04T07:58:11.030Z,13.30
2019-03-04T08:00:39.445Z,13.20
2019-03-04T08:03:07.881Z,13.00
2019-03-04T08:05:37.815Z,12.90
2019-03-04T08:08:09.472Z,12.70
2019-03-04T08:10:55.550Z,12.60
2019-03-04T08:13:32.237Z,12.60
2019-03-04T08:16:00.636Z,12.40
2019-03-04T08:18:29.134Z,12.20
2019-03-04T08:20:57.999Z,11.90
2019-03-04T08:23:26.396Z,11.60
2019-03-04T08:25:54.803Z,11.30
2019-03-04T08:28:23.202Z,10.90
2019-03-04T08:30:51.615Z,10.60
2019-03-04T08:33:20.007Z,10.30
2019-03-04T08:35:48.413Z,10.10
2019-03-04T08:38:16.886Z,10.00
2019-03-04T08:40:45.271Z,9.90
2019-03-04T08:43:13.660Z,9.80
2019-03-04T08:45:42.062Z,9.80
2019-03-04T08:48:10.451Z,9.70
2019-03-04T08:50:38.864Z,9.80
2019-03-04T08:53:07.254Z,9.90
2019-03-04T08:55:35.742Z,10.00
2019-03-04T08:58:04.135Z,10.10
2019-03-04T09:00:32.607Z,10.20
2019-03-04T09:03:01.475Z,10.30
2019-03-04T09:05:29.883Z,10.50
2019-03-04T09:07:58.281Z,10.70
2019-03-04T09:10:32.200Z,10.80
2019-03-04T09:13:00.668Z,10.90
2019-03-04T09:15:29.074Z,11.00
2019-03-04T09:17:57.468Z,11.10
2019-03-04T09:20:25.988Z,11.20
2019-03-04T09:22:54.819Z,11.30
2019-03-04T09:25:35.175Z,11.30
2019-03-04T09:28:03.959Z,11.40
2019-03-04T09:30:32.596Z,11.40
2019-03-04T09:33:00.990Z,11.50
2019-03-04T09:35:29.405Z,11.60
2019-03-04T09:37:57.817Z,11.70
2019-03-04T09:40:28.970Z,11.70
2019-03-04T09:42:57.751Z,11.70
2019-03-04T09:45:26.155Z,11.80
2019-03-04T09:47:54.563Z,11.90
2019-03-04T09:50:25.682Z,12.00
2019-03-04T09:52:54.154Z,12.10
2019-03-04T09:55:22.734Z,12.20
2019-03-04T09:57:51.143Z,12.30
2019-03-04T10:00:37.694Z,12.40
2019-03-04T10:03:35.051Z,12.40
2019-03-04T10:06:23.135Z,12.60
2019-03-04T10:09:17.190Z,12.70
2019-03-04T10:12:00.384Z,12.70
2019-03-04T10:15:08.732Z,12.70
2019-03-04T10:17:56.527Z,12.60
2019-03-04T10:20:44.607Z,12.50
2019-03-04T10:23:31.083Z,12.40
2019-03-04T10:26:08.475Z,12.40
2019-03-04T10:29:02.619Z,12.40
2019-03-04T10:31:42.938Z,12.30
2019-03-04T10:34:32.141Z,12.40
2019-03-04T10:37:09.410Z,12.40
2019-03-04T10:39:43.627Z,12.30
2019-03-04T10:42:31.751Z,12.30
2019-03-04T10:45:14.989Z,12.30
2019-03-04T10:47:43.411Z,12.30
2019-03-04T10:50:11.870Z,12.20
2019-03-04T10:52:40.280Z,12.20
2019-03-04T10:55:11.945Z,12.20
2019-03-04T10:57:41.170Z,12.10
2019-03-04T11:00:17.513Z,12.00
2019-03-04T11:02:45.934Z,11.90
2019-03-04T11:05:14.477Z,11.80
2019-03-04T11:07:42.872Z,11.70
2019-03-04T11:10:13.035Z,11.60
2019-03-04T11:12:41.435Z,11.50
2019-03-04T11:15:26.863Z,11.50
2019-03-04T11:17:55.662Z,11.50
2019-03-04T11:20:24.222Z,11.40
2019-03-04T11:22:52.662Z,11.40
2019-03-04T11:25:21.122Z,11.50
2019-03-04T11:27:49.527Z,11.60
2019-03-04T11:30:29.566Z,11.70
2019-03-04T11:32:57.996Z,11.80
2019-03-04T11:35:26.422Z,11.80
2019-03-04T11:37:54.839Z,11.80
2019-03-04T11:40:30.588Z,11.80
2019-03-04T11:42:59.176Z,11.80
2019-03-04T11:45:27.636Z,11.80
2019-03-04T11:47:56.061Z,11.90
2019-03-04T11:50:25.287Z,11.90
2019-03-04T11:52:54.054Z,11.90
2019-03-04T11:55:31.310Z,11.90
2019-03-04T11:57:59.906Z,11.90
2019-03-04T12:00:36.818Z,12.00
2019-03-04T12:03:05.230Z,12.00
2019-03-04T12:05:33.634Z,12.00
2019-03-04T12:08:02.143Z,12.00
2019-03-04T12:10:30.819Z,12.00
2019-03-04T12:12:59.222Z,12.00
2019-03-04T12:15:27.616Z,11.90
2019-03-04T12:17:56.027Z,11.90
2019-03-04T12:20:24.414Z,11.80
2019-03-04T12:22:52.830Z,11.80
2019-03-04T12:25:21.565Z,11.80
2019-03-04T12:27:50.087Z,11.80
2019-03-04T12:30:20.758Z,11.80
2019-03-04T12:32:49.155Z,11.70
2019-03-04T12:35:17.894Z,11.70
2019-03-04T12:37:46.358Z,11.60
2019-03-04T12:40:19.714Z,11.70
2019-03-04T12:42:48.135Z,11.70
2019-03-04T12:45:33.712Z,11.70
2019-03-04T12:47:54.436Z,11.60
2019-03-04T12:50:34.192Z,11.40
2019-03-04T12:53:02.670Z,11.40
2019-03-04T12:55:31.058Z,11.20
2019-03-04T12:57:59.481Z,11.20
2019-03-04T13:00:33.218Z,11.10
2019-03-04T13:03:01.630Z,11.20
2019-03-04T13:05:30.019Z,11.20
2019-03-04T13:07:58.424Z,11.30
2019-03-04T13:10:27.514Z,11.40
2019-03-04T13:12:55.982Z,11.40
2019-03-04T13:15:37.994Z,11.60
2019-03-04T13:18:09.144Z,11.70
2019-03-04T13:20:37.809Z,11.80
2019-03-04T13:23:06.813Z,12.00
2019-03-04T13:25:35.226Z,12.20
2019-03-04T13:28:08.198Z,12.40
2019-03-04T13:30:39.614Z,12.50
2019-03-04T13:33:09.186Z,12.50
2019-03-04T13:35:41.732Z,12.40
2019-03-04T13:38:10.390Z,12.40
2019-03-04T13:40:39.874Z,12.40
2019-03-04T13:43:08.503Z,12.50
2019-03-04T13:45:36.912Z,12.60
2019-03-04T13:48:05.560Z,12.70
2019-03-04T13:50:37.581Z,12.90
2019-03-04T13:53:06.351Z,13.10
2019-03-04T13:55:34.745Z,13.20
2019-03-04T13:58:03.392Z,13.40
2019-03-04T14:00:42.719Z,13.70
2019-03-04T14:03:13.662Z,14.10
2019-03-04T14:05:42.094Z,14.30
2019-03-04T14:08:10.559Z,14.50
2019-03-04T14:10:46.998Z,14.50
2019-03-04T14:13:15.390Z,14.40
2019-03-04T14:15:45.427Z,14.20
2019-03-04T14:18:13.839Z,14.10
2019-03-04T14:20:42.250Z,13.90
2019-03-04T14:23:10.646Z,13.80
2019-03-04T14:25:39.285Z,13.70
2019-03-04T14:28:07.872Z,13.60
2019-03-04T14:30:36.355Z,13.50
2019-03-04T14:33:04.923Z,13.50
2019-03-04T14:35:33.334Z,13.40
2019-03-04T14:38:01.736Z,13.40
2019-03-04T14:40:30.127Z,13.40
2019-03-04T14:42:58.639Z,13.30
2019-03-04T14:45:27.872Z,13.20
2019-03-04T14:47:56.356Z,13.10
2019-03-04T14:50:25.008Z,13.10
2019-03-04T14:52:53.401Z,13.20
2019-03-04T14:55:24.882Z,13.20
2019-03-04T14:57:54.279Z,13.20
2019-03-04T15:00:27.651Z,13.30
2019-03-04T15:02:56.147Z,13.30
2019-03-04T15:05:25.462Z,13.30
2019-03-04T15:07:55.606Z,13.30
2019-03-04T15:10:24.062Z,13.20
2019-03-04T15:12:52.829Z,13.20
2019-03-04T15:15:26.269Z,13.10
2019-03-04T15:17:54.910Z,13.00
2019-03-04T15:20:25.153Z,12.80
2019-03-04T15:22:53.538Z,12.60
2019-03-04T15:25:33.267Z,12.40
2019-03-04T15:28:15.447Z,12.30
2019-03-04T15:30:46.569Z,12.10
2019-03-04T15:33:18.481Z,11.90
2019-03-04T15:35:45.215Z,11.70
2019-03-04T15:38:13.619Z,11.20
2019-03-04T15:40:42.125Z,10.40
2019-03-04T15:43:10.534Z,9.40
2019-03-04T15:45:40.710Z,8.40
2019-03-04T15:48:09.170Z,7.80
2019-03-04T15:50:37.580Z,7.40
2019-03-04T15:53:06.542Z,7.20
2019-03-04T15:55:35.019Z,7.00
2019-03-04T15:58:03.575Z,7.00
2019-03-04T16:00:32.030Z,7.00
2019-03-04T16:03:00.594Z,7.00
2019-03-04T16:05:29.231Z,7.00
2019-03-04T16:08:06.749Z,7.00
2019-03-04T16:10:34.445Z,7.00
2019-03-04T16:13:02.971Z,7.00
2019-03-04T16:15:31.551Z,6.90
2019-03-04T16:18:00.932Z,6.80
2019-03-04T16:20:29.415Z,6.70
2019-03-04T16:22:57.864Z,6.60
2019-03-04T16:25:26.313Z,6.50
2019-03-04T16:28:04.192Z,6.50
2019-03-04T16:30:32.923Z,6.50
2019-03-04T16:33:01.311Z,6.50
2019-03-04T16:35:29.734Z,6.50
2019-03-04T16:37:58.222Z,6.50
2019-03-04T16:40:26.781Z,6.60
2019-03-04T16:42:55.207Z,6.60
2019-03-04T16:45:24.042Z,6.60
2019-03-04T16:47:53.106Z,6.60
2019-03-04T16:50:36.413Z,6.50
2019-03-04T16:53:14.293Z,6.60
2019-03-04T16:55:42.674Z,6.60
2019-03-04T16:58:11.090Z,6.60
2019-03-04T17:00:39.648Z,6.60
2019-03-04T17:03:08.065Z,6.60
2019-03-04T17:05:36.529Z,6.60
2019-03-04T17:08:05.198Z,6.50
2019-03-04T17:10:33.659Z,6.50
2019-03-04T17:13:02.149Z,6.50
2019-03-04T17:15:30.619Z,6.40
2019-03-04T17:17:59.126Z,6.30
2019-03-04T17:20:27.592Z,6.20
2019-03-04T17:22:55.978Z,6.10
2019-03-04T17:25:25.084Z,6.10
2019-03-04T17:27:53.471Z,6.00
2019-03-04T17:30:23.736Z,5.90
2019-03-04T17:32:52.451Z,5.90
2019-03-04T17:35:23.923Z,5.90
2019-03-04T17:37:52.609Z,5.90
2019-03-04T17:40:28.649Z,5.80
2019-03-04T17:42:57.230Z,5.80
2019-03-04T17:45:27.678Z,5.80
2019-03-04T17:47:56.069Z,5.80
2019-03-04T17:50:41.009Z,5.70
2019-03-04T17:53:11.798Z,5.70
2019-03-04T17:55:40.326Z,5.70
2019-03-04T17:58:09.027Z,5.70
2019-03-04T18:00:39.623Z,5.70
2019-03-04T18:03:08.842Z,5.70
2019-03-04T18:05:37.311Z,5.70
2019-03-04T18:08:05.864Z,5.60
2019-03-04T18:10:34.270Z,5.60
2019-03-04T18:13:07.786Z,5.60
2019-03-04T18:15:38.127Z,5.60
2019-03-04T18:18:06.602Z,5.50
2019-03-04T18:20:35.057Z,5.50
2019-03-04T18:23:03.727Z,5.40
2019-03-04T18:25:35.306Z,5.30
2019-03-04T18:28:12.635Z,5.30
2019-03-04T18:31:10.175Z,5.20
2019-03-04T18:33:58.327Z,5.20
2019-03-04T18:36:44.786Z,5.20
2019-03-04T18:39:51.318Z,5.20
2019-03-04T18:42:34.907Z,5.20
2019-03-04T18:45:23.882Z,5.20
2019-03-04T18:48:13.293Z,5.20
2019-03-04T18:50:41.698Z,5.20
2019-03-04T18:53:10.090Z,5.20
2019-03-04T18:55:38.596Z,5.10
2019-03-04T18:58:26.326Z,5.20
2019-03-04T19:00:54.771Z,5.10
2019-03-04T19:03:23.270Z,5.10
2019-03-04T19:05:51.808Z,5.20
2019-03-04T19:08:20.223Z,5.20
2019-03-04T19:10:48.659Z,5.20
2019-03-04T19:13:17.071Z,5.30
2019-03-04T19:18:24.280Z,5.30
2019-03-04T19:20:52.768Z,5.40
2019-03-04T19:23:21.250Z,5.40
2019-03-04T19:25:49.671Z,5.40
2019-03-04T19:28:18.083Z,5.40
2019-03-04T19:30:46.705Z,5.40
2019-03-04T19:33:15.278Z,5.40
2019-03-04T19:35:43.671Z,5.50
2019-03-04T19:38:12.154Z,5.50
2019-03-04T19:40:40.554Z,5.50
2019-03-04T19:43:09.224Z,5.60
2019-03-04T19:45:37.980Z,5.60
2019-03-04T19:48:06.499Z,5.70
2019-03-04T19:50:34.964Z,5.70
2019-03-04T19:53:04.120Z,5.70
2019-03-04T19:55:32.528Z,5.80
2019-03-04T19:58:01.106Z,5.90
2019-03-04T20:00:31.410Z,5.90
2019-03-04T20:03:00.242Z,5.90
2019-03-04T20:05:31.034Z,5.90
2019-03-04T20:08:00.071Z,5.90
2019-03-04T20:10:30.355Z,5.80
2019-03-04T20:12:58.751Z,5.70
2019-03-04T20:15:32.547Z,5.70
2019-03-04T20:18:01.343Z,5.60
2019-03-04T20:20:30.046Z,5.60
2019-03-04T20:22:58.527Z,5.50
2019-03-04T20:25:47.783Z,5.40
2019-03-04T20:28:17.735Z,5.40
2019-03-04T20:30:46.128Z,5.30
2019-03-04T20:33:14.879Z,5.20
2019-03-04T20:35:43.547Z,5.20
2019-03-04T20:38:26.787Z,5.20
2019-03-04T20:40:55.277Z,5.20
2019-03-04T20:43:23.667Z,5.10
2019-03-04T20:45:52.127Z,5.10
2019-03-04T20:48:20.547Z,5.10
2019-03-04T20:50:48.980Z,5.10
2019-03-04T20:53:17.386Z,5.10
2019-03-04T20:55:45.795Z,5.10
2019-03-04T20:58:14.186Z,5.10
2019-03-04T21:00:42.923Z,5.10
2019-03-04T21:03:11.632Z,5.00
2019-03-04T21:05:40.095Z,5.00
2019-03-04T21:08:08.755Z,5.00
2019-03-04T21:10:37.402Z,5.00
2019-03-04T21:13:13.690Z,4.90
2019-03-04T21:15:42.098Z,4.90
2019-03-04T21:18:10.729Z,4.80
2019-03-04T21:20:39.190Z,4.80
2019-03-04T21:23:08.046Z,4.70
2019-03-04T21:25:45.106Z,4.70
2019-03-04T21:28:34.607Z,4.70
2019-03-04T21:31:30.632Z,4.60
2019-03-04T21:34:11.534Z,4.60
2019-03-04T21:36:55.249Z,4.60
2019-03-04T21:39:36.740Z,4.60
2019-03-04T21:42:34.990Z,4.60
2019-03-04T21:45:21.810Z,4.60
2019-03-04T21:47:53.288Z,4.50
2019-03-04T21:50:39.195Z,4.60
2019-03-04T21:53:13.687Z,4.50
2019-03-04T21:55:47.766Z,4.50
2019-03-04T21:58:16.161Z,4.50
2019-03-04T22:00:46.207Z,4.50
2019-03-04T22:03:19.794Z,4.50
2019-03-04T22:05:50.781Z,4.50
2019-03-04T22:08:19.351Z,4.50
2019-03-04T22:10:47.831Z,4.50
2019-03-04T22:13:16.215Z,4.50
2019-03-04T22:15:44.602Z,4.50
2019-03-04T22:18:13.656Z,4.40
2019-03-04T22:20:42.347Z,4.30
2019-03-04T22:23:10.844Z,4.30
2019-03-04T22:25:39.402Z,4.20
2019-03-04T22:28:07.871Z,4.30
2019-03-04T22:30:36.335Z,4.30
2019-03-04T22:33:05.350Z,4.30
2019-03-04T22:35:33.942Z,4.20
2019-03-04T22:38:02.499Z,4.10
2019-03-04T22:40:30.892Z,4.00
2019-03-04T22:42:59.373Z,3.90
2019-03-04T22:45:27.765Z,3.90
2019-03-04T22:47:56.158Z,3.80
2019-03-04T22:50:24.571Z,3.80
2019-03-04T22:52:53.116Z,3.90
2019-03-04T22:55:29.681Z,3.90
2019-03-04T22:57:58.146Z,4.00
2019-03-04T23:00:49.106Z,4.10
2019-03-04T23:03:18.630Z,4.10
2019-03-04T23:06:01.914Z,4.20
2019-03-04T23:08:30.307Z,4.30
2019-03-04T23:10:58.697Z,4.30
2019-03-04T23:13:51.498Z,4.40
2019-03-04T23:16:22.826Z,4.50
2019-03-04T23:18:51.218Z,4.60
2019-03-04T23:21:20.394Z,4.70
2019-03-04T23:23:48.783Z,4.80
2019-03-04T23:26:17.179Z,4.80
2019-03-04T23:28:45.849Z,4.80
2019-03-04T23:31:14.242Z,4.60
2019-03-04T23:33:42.647Z,4.50
2019-03-04T23:36:11.081Z,4.40
2019-03-04T23:38:39.472Z,4.30
2019-03-04T23:41:07.882Z,4.20
2019-03-04T23:43:36.277Z,4.20
2019-03-04T23:46:04.688Z,4.20
2019-03-04T23:48:33.298Z,4.20
2019-03-04T23:51:01.686Z,4.20
2019-03-04T23:53:31.133Z,4.20
2019-03-04T23:55:59.867Z,4.20
2019-03-04T23:58:28.526Z,4.10
